Terminal Aerodrome Forecast
Issued by NWS

Home | Current Version | Previous Version | Text Only | Print | Product List | Glossary On
Versions: 1 2 3 4 5 6 7 8 9 10 11 12 13 14 15 16 17 18 19
477
FTUS43 KPAH 100304 AAA
TAFCGI
TAF AMD
KCGI 100304Z 1003/1024 28007KT P6SM OVC050
     FM100500 31006KT P6SM SCT040
     FM101600 30007KT P6SM BKN100=

USA.gov is the U.S. government's official web portal to all federal, state and local government web resources and services.